METAR Formatted Surface Weather Observation
Issued by NWS

Current Version | Previous Version | Text Only | Print | Product List | Glossary On
Versions: 1 2 3
798
SAUS44 KLIX 211659 COR
MTRBVE
METAR KBVE 211651Z AUTO 15014G20KT 4SM HZ SCT016 OVC027 27/23 A3026
RMK AO2 SLP246 T02720228



USA.gov is the U.S. government's official web portal to all federal, state and local government web resources and services.